sensor_id;sensor_type;location;lat;lon;timestamp;pressure;altitude;pressure_sealevel;temperature;humidity
14383;BME280;7275;50.328;8.720;2023-04-20T00:00:10;99923.78;;;14.24;27.18
14383;BME280;7275;50.328;8.720;2023-04-20T00:02:39;99917.66;;;14.22;27.26
14383;BME280;7275;50.328;8.720;2023-04-20T00:08:41;99915.44;;;14.13;27.17
14383;BME280;7275;50.328;8.720;2023-04-20T00:11:14;99904.91;;;14.11;27.34
14383;BME280;7275;50.328;8.720;2023-04-20T00:13:41;99899.66;;;14.10;27.38
14383;BME280;7275;50.328;8.720;2023-04-20T00:16:09;99896.13;;;14.09;27.32
14383;BME280;7275;50.328;8.720;2023-04-20T00:18:38;99889.09;;;14.08;27.37
14383;BME280;7275;50.328;8.720;2023-04-20T00:21:05;99887.28;;;14.09;27.56
14383;BME280;7275;50.328;8.720;2023-04-20T00:23:34;99878.41;;;14.10;27.53
14383;BME280;7275;50.328;8.720;2023-04-20T00:26:01;99879.22;;;14.10;27.58
14383;BME280;7275;50.328;8.720;2023-04-20T00:28:29;99871.19;;;14.12;27.40
14383;BME280;7275;50.328;8.720;2023-04-20T00:30:56;99872.81;;;14.14;27.64
14383;BME280;7275;50.328;8.720;2023-04-20T00:33:24;99870.13;;;14.16;27.51
14383;BME280;7275;50.328;8.720;2023-04-20T00:35:53;99862.13;;;14.16;27.62
14383;BME280;7275;50.328;8.720;2023-04-20T00:38:21;99857.81;;;14.13;27.51
14383;BME280;7275;50.328;8.720;2023-04-20T00:40:49;99860.56;;;14.12;27.67
14383;BME280;7275;50.328;8.720;2023-04-20T00:43:20;99851.03;;;14.08;27.76
14383;BME280;7275;50.328;8.720;2023-04-20T00:45:48;99853.03;;;14.03;27.57
14383;BME280;7275;50.328;8.720;2023-04-20T00:48:17;99849.69;;;13.99;27.89
14383;BME280;7275;50.328;8.720;2023-04-20T00:50:45;99853.41;;;13.95;27.87
14383;BME280;7275;50.328;8.720;2023-04-20T00:53:16;99839.41;;;13.92;27.91
14383;BME280;7275;50.328;8.720;2023-04-20T00:55:44;99846.59;;;13.90;28.18
14383;BME280;7275;50.328;8.720;2023-04-20T00:58:12;99840.47;;;13.88;27.90
14383;BME280;7275;50.328;8.720;2023-04-20T01:00:40;99830.84;;;13.85;28.02
14383;BME280;7275;50.328;8.720;2023-04-20T01:03:07;99830.25;;;13.80;28.08
14383;BME280;7275;50.328;8.720;2023-04-20T01:05:35;99822.41;;;13.77;28.16
14383;BME280;7275;50.328;8.720;2023-04-20T01:08:03;99823.47;;;13.73;28.19
14383;BME280;7275;50.328;8.720;2023-04-20T01:10:32;99821.81;;;13.71;28.34
14383;BME280;7275;50.328;8.720;2023-04-20T01:12:59;99819.41;;;13.66;28.39
14383;BME280;7275;50.328;8.720;2023-04-20T01:15:28;99818.69;;;13.62;28.39
14383;BME280;7275;50.328;8.720;2023-04-20T01:17:55;99814.44;;;13.58;28.60
14383;BME280;7275;50.328;8.720;2023-04-20T01:20:24;99818.97;;;13.56;28.59
14383;BME280;7275;50.328;8.720;2023-04-20T01:22:52;99819.06;;;13.55;28.71
14383;BME280;7275;50.328;8.720;2023-04-20T01:25:20;99815.63;;;13.53;28.66
14383;BME280;7275;50.328;8.720;2023-04-20T01:27:48;99818.34;;;13.51;28.83
14383;BME280;7275;50.328;8.720;2023-04-20T01:30:16;99812.97;;;13.53;29.08
14383;BME280;7275;50.328;8.720;2023-04-20T01:32:43;99820.94;;;13.53;28.99
14383;BME280;7275;50.328;8.720;2023-04-20T01:35:11;99820.84;;;13.54;29.15
14383;BME280;7275;50.328;8.720;2023-04-20T01:37:39;99818.06;;;13.57;29.47
14383;BME280;7275;50.328;8.720;2023-04-20T01:40:09;99815.25;;;13.60;29.58
14383;BME280;7275;50.328;8.720;2023-04-20T01:42:37;99808.06;;;13.62;29.64
14383;BME280;7275;50.328;8.720;2023-04-20T01:45:06;99807.13;;;13.63;29.78
14383;BME280;7275;50.328;8.720;2023-04-20T01:47:34;99811.50;;;13.64;29.81
14383;BME280;7275;50.328;8.720;2023-04-20T01:50:02;99805.28;;;13.66;30.08
14383;BME280;7275;50.328;8.720;2023-04-20T01:52:29;99808.06;;;13.62;30.01
14383;BME280;7275;50.328;8.720;2023-04-20T01:54:57;99808.84;;;13.64;30.14
14383;BME280;7275;50.328;8.720;2023-04-20T01:57:25;99803.53;;;13.64;30.40
14383;BME280;7275;50.328;8.720;2023-04-20T01:59:53;99806.28;;;13.63;30.56
14383;BME280;7275;50.328;8.720;2023-04-20T02:02:20;99800.16;;;13.61;30.50
14383;BME280;7275;50.328;8.720;2023-04-20T02:04:48;99799.25;;;13.62;30.64
14383;BME280;7275;50.328;8.720;2023-04-20T02:07:16;99798.47;;;13.60;30.99
14383;BME280;7275;50.328;8.720;2023-04-20T02:09:43;99802.91;;;13.59;31.00
14383;BME280;7275;50.328;8.720;2023-04-20T02:12:12;99798.50;;;13.58;30.95
14383;BME280;7275;50.328;8.720;2023-04-20T02:14:40;99802.91;;;13.59;31.25
14383;BME280;7275;50.328;8.720;2023-04-20T02:17:08;99798.50;;;13.58;31.27
14383;BME280;7275;50.328;8.720;2023-04-20T02:19:35;99803.81;;;13.58;31.32
14383;BME280;7275;50.328;8.720;2023-04-20T02:22:03;99802.19;;;13.56;31.30
14383;BME280;7275;50.328;8.720;2023-04-20T02:24:30;99802.25;;;13.54;31.57
14383;BME280;7275;50.328;8.720;2023-04-20T02:26:58;99793.59;;;13.51;31.80
14383;BME280;7275;50.328;8.720;2023-04-20T02:29:26;99793.59;;;13.51;31.75
14383;BME280;7275;50.328;8.720;2023-04-20T02:31:55;99784.84;;;13.49;31.94
14383;BME280;7275;50.328;8.720;2023-04-20T02:34:23;99784.97;;;13.46;32.02
14383;BME280;7275;50.328;8.720;2023-04-20T02:36:51;99778.94;;;13.42;32.34
14383;BME280;7275;50.328;8.720;2023-04-20T02:39:18;99772.06;;;13.38;32.44
14383;BME280;7275;50.328;8.720;2023-04-20T02:41:46;99775.88;;;13.33;32.42
14383;BME280;7275;50.328;8.720;2023-04-20T02:44:14;99775.31;;;13.26;32.70
14383;BME280;7275;50.328;8.720;2023-04-20T02:46:41;99772.84;;;13.22;32.90
14383;BME280;7275;50.328;8.720;2023-04-20T02:49:10;99770.41;;;13.17;33.15
14383;BME280;7275;50.328;8.720;2023-04-20T02:51:38;99781.22;;;13.13;33.21
14383;BME280;7275;50.328;8.720;2023-04-20T02:54:05;99779.75;;;13.07;33.11
14383;BME280;7275;50.328;8.720;2023-04-20T02:56:32;99773.69;;;13.04;33.42
14383;BME280;7275;50.328;8.720;2023-04-20T02:59:00;99773.69;;;13.04;33.48
14383;BME280;7275;50.328;8.720;2023-04-20T03:01:28;99772.81;;;13.03;33.57
14383;BME280;7275;50.328;8.720;2023-04-20T03:03:55;99772.78;;;13.05;33.60
14383;BME280;7275;50.328;8.720;2023-04-20T03:06:25;99765.72;;;13.04;34.07
14383;BME280;7275;50.328;8.720;2023-04-20T03:08:53;99770.13;;;13.05;33.76
14383;BME280;7275;50.328;8.720;2023-04-20T03:11:21;99756.84;;;13.05;34.04
14383;BME280;7275;50.328;8.720;2023-04-20T03:13:48;99764.81;;;13.05;34.01
14383;BME280;7275;50.328;8.720;2023-04-20T03:16:15;99764.00;;;13.03;34.20
14383;BME280;7275;50.328;8.720;2023-04-20T03:18:43;99764.97;;;13.00;33.98
14383;BME280;7275;50.328;8.720;2023-04-20T03:21:10;99767.78;;;12.97;34.27
14383;BME280;7275;50.328;8.720;2023-04-20T03:23:41;99764.28;;;12.97;34.42
14383;BME280;7275;50.328;8.720;2023-04-20T03:26:08;99764.41;;;12.94;34.47
14383;BME280;7275;50.328;8.720;2023-04-20T03:28:36;99763.56;;;12.93;34.38
14383;BME280;7275;50.328;8.720;2023-04-20T03:31:03;99767.84;;;12.96;34.63
14383;BME280;7275;50.328;8.720;2023-04-20T03:33:31;99757.19;;;12.97;34.79
14383;BME280;7275;50.328;8.720;2023-04-20T03:35:59;99759.69;;;13.00;34.54
14383;BME280;7275;50.328;8.720;2023-04-20T03:38:26;99764.13;;;13.00;34.76
14383;BME280;7275;50.328;8.720;2023-04-20T03:40:55;99754.44;;;12.99;34.92
14383;BME280;7275;50.328;8.720;2023-04-20T03:43:23;99756.22;;;12.98;34.73
14383;BME280;7275;50.328;8.720;2023-04-20T03:45:50;99755.38;;;12.98;34.90
14383;BME280;7275;50.328;8.720;2023-04-20T03:48:18;99752.66;;;12.99;34.91
14383;BME280;7275;50.328;8.720;2023-04-20T03:50:45;99741.97;;;13.01;34.89
14383;BME280;7275;50.328;8.720;2023-04-20T03:53:13;99755.09;;;13.04;35.07
14383;BME280;7275;50.328;8.720;2023-04-20T03:55:40;99745.38;;;13.04;35.06
14383;BME280;7275;50.328;8.720;2023-04-20T03:58:09;99740.84;;;13.06;35.12
14383;BME280;7275;50.328;8.720;2023-04-20T04:00:36;99739.84;;;13.09;35.06
14383;BME280;7275;50.328;8.720;2023-04-20T04:03:04;99742.50;;;13.09;35.24
14383;BME280;7275;50.328;8.720;2023-04-20T04:05:32;99745.16;;;13.09;35.26
14383;BME280;7275;50.328;8.720;2023-04-20T04:07:59;99741.72;;;13.07;35.46
14383;BME280;7275;50.328;8.720;2023-04-20T04:10:27;99744.44;;;13.05;35.19
14383;BME280;7275;50.328;8.720;2023-04-20T04:12:54;99741.84;;;13.04;35.75
14383;BME280;7275;50.328;8.720;2023-04-20T04:15:23;99743.63;;;13.03;35.94
14383;BME280;7275;50.328;8.720;2023-04-20T04:17:52;99741.88;;;13.02;35.83
14383;BME280;7275;50.328;8.720;2023-04-20T04:20:20;99745.41;;;13.03;35.62
14383;BME280;7275;50.328;8.720;2023-04-20T04:22:47;99738.28;;;13.05;36.02
14383;BME280;7275;50.328;8.720;2023-04-20T04:25:15;99747.88;;;13.07;35.93
14383;BME280;7275;50.328;8.720;2023-04-20T04:27:42;99744.38;;;13.07;35.82
14383;BME280;7275;50.328;8.720;2023-04-20T04:30:12;99744.50;;;13.04;36.08
14383;BME280;7275;50.328;8.720;2023-04-20T04:32:41;99736.66;;;13.01;35.84
14383;BME280;7275;50.328;8.720;2023-04-20T04:35:09;99735.00;;;12.98;35.63
14383;BME280;7275;50.328;8.720;2023-04-20T04:37:37;99741.31;;;12.96;36.16
14383;BME280;7275;50.328;8.720;2023-04-20T04:40:05;99738.81;;;12.93;36.16
14383;BME280;7275;50.328;8.720;2023-04-20T04:42:34;99733.59;;;12.91;35.92
14383;BME280;7275;50.328;8.720;2023-04-20T04:45:01;99731.78;;;12.92;36.18
14383;BME280;7275;50.328;8.720;2023-04-20T04:47:33;99737.94;;;12.92;36.49
14383;BME280;7275;50.328;8.720;2023-04-20T04:50:03;99729.91;;;12.94;36.21
14383;BME280;7275;50.328;8.720;2023-04-20T04:52:31;99731.47;;;12.98;36.16
14383;BME280;7275;50.328;8.720;2023-04-20T04:54:58;99734.00;;;13.01;36.04
14383;BME280;7275;50.328;8.720;2023-04-20T04:57:26;99735.66;;;13.03;36.22
14383;BME280;7275;50.328;8.720;2023-04-20T04:59:53;99735.50;;;13.08;36.17
14383;BME280;7275;50.328;8.720;2023-04-20T05:02:21;99730.09;;;13.09;36.48
14383;BME280;7275;50.328;8.720;2023-04-20T05:04:48;99735.50;;;13.08;36.41
14383;BME280;7275;50.328;8.720;2023-04-20T05:07:17;99730.19;;;13.08;36.57
14383;BME280;7275;50.328;8.720;2023-04-20T05:09:45;99737.28;;;13.07;36.72
14383;BME280;7275;50.328;8.720;2023-04-20T05:12:12;99731.88;;;13.09;36.62
14383;BME280;7275;50.328;8.720;2023-04-20T05:14:40;99728.22;;;13.11;36.76
14383;BME280;7275;50.328;8.720;2023-04-20T05:17:07;99736.81;;;13.16;36.91
14383;BME280;7275;50.328;8.720;2023-04-20T05:19:35;99732.34;;;13.18;36.66
14383;BME280;7275;50.328;8.720;2023-04-20T05:22:03;99733.91;;;13.22;36.82
14383;BME280;7275;50.328;8.720;2023-04-20T05:24:33;99728.44;;;13.25;36.81
14383;BME280;7275;50.328;8.720;2023-04-20T05:27:01;99729.31;;;13.26;36.91
14383;BME280;7275;50.328;8.720;2023-04-20T05:29:29;99731.00;;;13.27;37.19
14383;BME280;7275;50.328;8.720;2023-04-20T05:31:57;99732.75;;;13.28;36.99
14383;BME280;7275;50.328;8.720;2023-04-20T05:34:25;99729.09;;;13.30;37.02
14383;BME280;7275;50.328;8.720;2023-04-20T05:36:52;99735.09;;;13.34;37.04
14383;BME280;7275;50.328;8.720;2023-04-20T05:39:22;99737.69;;;13.35;37.32
14383;BME280;7275;50.328;8.720;2023-04-20T05:41:50;99736.69;;;13.38;37.24
14383;BME280;7275;50.328;8.720;2023-04-20T05:44:18;99737.53;;;13.38;37.07
14383;BME280;7275;50.328;8.720;2023-04-20T05:46:46;99743.78;;;13.37;37.17
14383;BME280;7275;50.328;8.720;2023-04-20T05:49:13;99742.97;;;13.35;37.31
14383;BME280;7275;50.328;8.720;2023-04-20T05:51:41;99743.06;;;13.34;37.21
14383;BME280;7275;50.328;8.720;2023-04-20T05:54:08;99743.06;;;13.34;37.35
14383;BME280;7275;50.328;8.720;2023-04-20T05:56:36;99741.28;;;13.34;37.51
14383;BME280;7275;50.328;8.720;2023-04-20T05:59:05;99744.72;;;13.36;37.37
14383;BME280;7275;50.328;8.720;2023-04-20T06:01:33;99734.09;;;13.36;37.40
14383;BME280;7275;50.328;8.720;2023-04-20T06:04:00;99740.28;;;13.37;37.49
14383;BME280;7275;50.328;8.720;2023-04-20T06:06:28;99733.94;;;13.39;37.59
14383;BME280;7275;50.328;8.720;2023-04-20T06:08:56;99743.34;;;13.46;37.67
14383;BME280;7275;50.328;8.720;2023-04-20T06:11:23;99742.34;;;13.49;37.70
14383;BME280;7275;50.328;8.720;2023-04-20T06:13:51;99739.50;;;13.52;37.39
14383;BME280;7275;50.328;8.720;2023-04-20T06:16:19;99737.66;;;13.54;37.72
14383;BME280;7275;50.328;8.720;2023-04-20T06:18:47;99737.59;;;13.55;37.56
14383;BME280;7275;50.328;8.720;2023-04-20T06:21:15;99741.66;;;13.62;37.84
14383;BME280;7275;50.328;8.720;2023-04-20T06:23:42;99733.53;;;13.66;37.84
14383;BME280;7275;50.328;8.720;2023-04-20T06:26:10;99734.16;;;13.71;37.72
14383;BME280;7275;50.328;8.720;2023-04-20T06:28:38;99733.94;;;13.75;37.76
14383;BME280;7275;50.328;8.720;2023-04-20T06:31:05;99736.28;;;13.81;37.89
14383;BME280;7275;50.328;8.720;2023-04-20T06:33:34;99733.41;;;13.86;37.83
14383;BME280;7275;50.328;8.720;2023-04-20T06:36:05;99740.28;;;13.90;37.92
14383;BME280;7275;50.328;8.720;2023-04-20T06:38:32;99734.06;;;13.91;37.73
14383;BME280;7275;50.328;8.720;2023-04-20T06:41:00;99742.72;;;13.94;37.64
14383;BME280;7275;50.328;8.720;2023-04-20T06:43:28;99739.91;;;13.97;38.00
14383;BME280;7275;50.328;8.720;2023-04-20T06:45:56;99741.41;;;14.03;37.89
14383;BME280;7275;50.328;8.720;2023-04-20T06:48:24;99747.50;;;14.05;37.83
14383;BME280;7275;50.328;8.720;2023-04-20T06:50:59;99743.81;;;14.07;37.97
14383;BME280;7275;50.328;8.720;2023-04-20T06:53:27;99742.81;;;14.10;37.88
14383;BME280;7275;50.328;8.720;2023-04-20T06:55:55;99742.66;;;14.13;37.94
14383;BME280;7275;50.328;8.720;2023-04-20T06:58:23;99738.19;;;14.13;37.87
14383;BME280;7275;50.328;8.720;2023-04-20T07:00:50;99742.56;;;14.14;38.01
14383;BME280;7275;50.328;8.720;2023-04-20T07:03:18;99734.28;;;14.20;38.09
14383;BME280;7275;50.328;8.720;2023-04-20T07:05:45;99735.69;;;14.27;38.09
14383;BME280;7275;50.328;8.720;2023-04-20T07:08:14;99729.16;;;14.34;38.01
14383;BME280;7275;50.328;8.720;2023-04-20T07:10:42;99730.53;;;14.41;38.06
14383;BME280;7275;50.328;8.720;2023-04-20T07:13:09;99729.28;;;14.49;38.09
14383;BME280;7275;50.328;8.720;2023-04-20T07:15:37;99728.94;;;14.55;37.96
14383;BME280;7275;50.328;8.720;2023-04-20T07:18:04;99726.06;;;14.59;38.04
14383;BME280;7275;50.328;8.720;2023-04-20T07:20:32;99730.28;;;14.63;38.18
14383;BME280;7275;50.328;8.720;2023-04-20T07:23:00;99729.25;;;14.66;37.94
14383;BME280;7275;50.328;8.720;2023-04-20T07:25:29;99723.06;;;14.65;37.93
14383;BME280;7275;50.328;8.720;2023-04-20T07:27:58;99724.03;;;14.64;37.91
14383;BME280;7275;50.328;8.720;2023-04-20T07:30:26;99729.34;;;14.64;37.85
14383;BME280;7275;50.328;8.720;2023-04-20T07:32:53;99730.34;;;14.62;37.80
14383;BME280;7275;50.328;8.720;2023-04-20T07:35:21;99717.16;;;14.60;37.95
14383;BME280;7275;50.328;8.720;2023-04-20T07:37:49;99716.44;;;14.57;37.98
14383;BME280;7275;50.328;8.720;2023-04-20T07:40:16;99724.66;;;14.52;37.80
14383;BME280;7275;50.328;8.720;2023-04-20T07:42:45;99726.72;;;14.47;37.94
14383;BME280;7275;50.328;8.720;2023-04-20T07:45:12;99726.78;;;14.46;38.10
14383;BME280;7275;50.328;8.720;2023-04-20T07:47:40;99733.97;;;14.43;38.11
14383;BME280;7275;50.328;8.720;2023-04-20T07:50:09;99736.56;;;14.45;38.19
14383;BME280;7275;50.328;8.720;2023-04-20T07:52:37;99727.56;;;14.48;38.21
14383;BME280;7275;50.328;8.720;2023-04-20T07:55:06;99740.38;;;14.57;38.22
14383;BME280;7275;50.328;8.720;2023-04-20T07:57:36;99741.69;;;14.65;38.40
14383;BME280;7275;50.328;8.720;2023-04-20T08:00:06;99735.94;;;14.73;38.34
14383;BME280;7275;50.328;8.720;2023-04-20T08:02:35;99747.91;;;14.81;38.31
14383;BME280;7275;50.328;8.720;2023-04-20T08:05:03;99744.06;;;14.87;38.40
14383;BME280;7275;50.328;8.720;2023-04-20T08:07:31;99743.81;;;14.91;38.37
14383;BME280;7275;50.328;8.720;2023-04-20T08:09:58;99744.50;;;14.95;38.27
14383;BME280;7275;50.328;8.720;2023-04-20T08:12:26;99746.94;;;14.99;38.40
14383;BME280;7275;50.328;8.720;2023-04-20T08:14:54;99748.63;;;15.00;38.28
14383;BME280;7275;50.328;8.720;2023-04-20T08:22:35;99737.00;;;15.18;38.40
14383;BME280;7275;50.328;8.720;2023-04-20T08:25:03;99737.22;;;15.30;38.53
14383;BME280;7275;50.328;8.720;2023-04-20T08:27:31;99741.75;;;15.45;38.48
14383;BME280;7275;50.328;8.720;2023-04-20T08:29:58;99730.78;;;15.65;38.49
14383;BME280;7275;50.328;8.720;2023-04-20T08:32:27;99719.50;;;15.91;38.44
14383;BME280;7275;50.328;8.720;2023-04-20T08:34:54;99716.84;;;16.21;38.37
14383;BME280;7275;50.328;8.720;2023-04-20T08:37:22;99721.19;;;16.51;38.03
14383;BME280;7275;50.328;8.720;2023-04-20T08:39:52;99718.63;;;16.78;38.16
14383;BME280;7275;50.328;8.720;2023-04-20T08:42:19;99711.38;;;17.08;37.95
14383;BME280;7275;50.328;8.720;2023-04-20T08:44:47;99711.31;;;17.36;37.82
14383;BME280;7275;50.328;8.720;2023-04-20T08:47:14;99708.88;;;17.60;37.42
14383;BME280;7275;50.328;8.720;2023-04-20T08:49:43;99712.72;;;17.83;37.53
14383;BME280;7275;50.328;8.720;2023-04-20T08:52:10;99707.19;;;17.98;37.32
14383;BME280;7275;50.328;8.720;2023-04-20T08:54:38;99702.28;;;18.17;37.29
14383;BME280;7275;50.328;8.720;2023-04-20T08:57:23;99703.72;;;18.35;36.93
14383;BME280;7275;50.328;8.720;2023-04-20T08:59:51;99708.28;;;18.60;37.09
14383;BME280;7275;50.328;8.720;2023-04-20T09:02:18;99706.94;;;18.91;37.03
14383;BME280;7275;50.328;8.720;2023-04-20T09:04:47;99705.09;;;19.17;36.69
14383;BME280;7275;50.328;8.720;2023-04-20T09:07:19;99697.97;;;19.41;36.29
14383;BME280;7275;50.328;8.720;2023-04-20T09:09:54;99689.34;;;19.72;36.04
14383;BME280;7275;50.328;8.720;2023-04-20T09:12:23;99686.19;;;20.36;35.82
14383;BME280;7275;50.328;8.720;2023-04-20T09:14:52;99686.03;;;21.17;35.61
14383;BME280;7275;50.328;8.720;2023-04-20T09:17:30;99678.09;;;22.01;35.17
14383;BME280;7275;50.328;8.720;2023-04-20T09:19:58;99681.84;;;22.92;34.56
14383;BME280;7275;50.328;8.720;2023-04-20T09:22:29;99668.94;;;23.35;33.71
14383;BME280;7275;50.328;8.720;2023-04-20T09:24:58;99666.03;;;24.15;32.73
14383;BME280;7275;50.328;8.720;2023-04-20T09:27:27;99659.44;;;25.02;31.88
14383;BME280;7275;50.328;8.720;2023-04-20T09:29:58;99655.97;;;25.99;31.77
14383;BME280;7275;50.328;8.720;2023-04-20T09:32:27;99660.34;;;26.35;30.41
14383;BME280;7275;50.328;8.720;2023-04-20T09:34:54;99660.56;;;26.42;30.08
14383;BME280;7275;50.328;8.720;2023-04-20T09:37:22;99658.34;;;26.80;30.04
14383;BME280;7275;50.328;8.720;2023-04-20T09:39:51;99649.03;;;27.33;29.28
14383;BME280;7275;50.328;8.720;2023-04-20T09:42:24;99651.72;;;27.66;28.87
14383;BME280;7275;50.328;8.720;2023-04-20T09:44:55;99643.84;;;27.97;28.76
14383;BME280;7275;50.328;8.720;2023-04-20T09:47:23;99637.81;;;27.61;28.33
14383;BME280;7275;50.328;8.720;2023-04-20T09:49:53;99635.03;;;27.04;28.17
14383;BME280;7275;50.328;8.720;2023-04-20T09:52:22;99637.47;;;26.81;28.21
14383;BME280;7275;50.328;8.720;2023-04-20T09:54:53;99628.31;;;27.16;28.14
14383;BME280;7275;50.328;8.720;2023-04-20T09:57:21;99617.81;;;27.87;28.22
14383;BME280;7275;50.328;8.720;2023-04-20T09:59:50;99621.22;;;28.37;27.25
14383;BME280;7275;50.328;8.720;2023-04-20T10:02:20;99623.75;;;28.38;27.36
14383;BME280;7275;50.328;8.720;2023-04-20T10:04:52;99616.59;;;28.37;27.28
14383;BME280;7275;50.328;8.720;2023-04-20T10:07:23;99610.66;;;28.42;26.52
14383;BME280;7275;50.328;8.720;2023-04-20T10:10:06;99604.66;;;28.71;26.50
14383;BME280;7275;50.328;8.720;2023-04-20T10:12:45;99606.28;;;29.35;26.34
14383;BME280;7275;50.328;8.720;2023-04-20T10:15:13;99599.88;;;30.04;25.87
14383;BME280;7275;50.328;8.720;2023-04-20T10:17:42;99596.47;;;30.02;24.80
14383;BME280;7275;50.328;8.720;2023-04-20T10:20:17;99596.06;;;29.37;25.35
14383;BME280;7275;50.328;8.720;2023-04-20T10:22:45;99597.00;;;28.74;25.68
14383;BME280;7275;50.328;8.720;2023-04-20T10:25:14;99589.56;;;28.44;25.51
14383;BME280;7275;50.328;8.720;2023-04-20T10:27:51;99588.06;;;27.93;25.56
14383;BME280;7275;50.328;8.720;2023-04-20T10:30:20;99577.66;;;27.48;25.82
14383;BME280;7275;50.328;8.720;2023-04-20T10:32:49;99579.91;;;27.03;25.91
14383;BME280;7275;50.328;8.720;2023-04-20T10:35:28;99586.38;;;26.43;25.90
14383;BME280;7275;50.328;8.720;2023-04-20T10:37:56;99591.81;;;25.82;26.40
14383;BME280;7275;50.328;8.720;2023-04-20T10:40:24;99584.72;;;25.18;26.76
14383;BME280;7275;50.328;8.720;2023-04-20T10:42:52;99587.13;;;24.57;26.71
14383;BME280;7275;50.328;8.720;2023-04-20T10:45:20;99591.81;;;24.00;27.35
14383;BME280;7275;50.328;8.720;2023-04-20T10:47:49;99586.00;;;23.47;27.53
14383;BME280;7275;50.328;8.720;2023-04-20T10:50:16;99577.84;;;23.18;27.83
14383;BME280;7275;50.328;8.720;2023-04-20T10:52:44;99566.66;;;23.23;28.17
14383;BME280;7275;50.328;8.720;2023-04-20T10:55:18;99573.72;;;23.14;28.36
14383;BME280;7275;50.328;8.720;2023-04-20T10:57:46;99572.16;;;22.92;28.27
14383;BME280;7275;50.328;8.720;2023-04-20T11:00:15;99576.84;;;22.60;28.30
14383;BME280;7275;50.328;8.720;2023-04-20T11:02:49;99564.59;;;22.26;28.78
14383;BME280;7275;50.328;8.720;2023-04-20T11:05:17;99572.50;;;21.97;28.91
14383;BME280;7275;50.328;8.720;2023-04-20T11:07:47;99574.25;;;21.67;29.00
14383;BME280;7275;50.328;8.720;2023-04-20T11:10:17;99569.88;;;21.34;29.32
14383;BME280;7275;50.328;8.720;2023-04-20T11:12:44;99566.91;;;21.05;29.77
14383;BME280;7275;50.328;8.720;2023-04-20T11:15:12;99564.59;;;20.79;30.03
14383;BME280;7275;50.328;8.720;2023-04-20T11:17:39;99565.00;;;20.52;30.20
14383;BME280;7275;50.328;8.720;2023-04-20T11:20:10;99550.72;;;20.29;30.53
14383;BME280;7275;50.328;8.720;2023-04-20T11:22:39;99558.88;;;20.28;30.48
14383;BME280;7275;50.328;8.720;2023-04-20T11:25:08;99557.13;;;20.93;30.66
14383;BME280;7275;50.328;8.720;2023-04-20T11:27:36;99560.16;;;21.42;30.62
14383;BME280;7275;50.328;8.720;2023-04-20T11:30:05;99549.31;;;21.65;30.38
14383;BME280;7275;50.328;8.720;2023-04-20T11:32:34;99546.34;;;21.68;30.07
14383;BME280;7275;50.328;8.720;2023-04-20T11:35:05;99557.19;;;21.57;30.30
14383;BME280;7275;50.328;8.720;2023-04-20T11:37:45;99543.91;;;21.44;30.47
14383;BME280;7275;50.328;8.720;2023-04-20T11:40:13;99541.34;;;21.42;30.96
14383;BME280;7275;50.328;8.720;2023-04-20T11:42:40;99529.78;;;21.83;30.84
14383;BME280;7275;50.328;8.720;2023-04-20T11:45:09;99524.69;;;22.80;30.67
14383;BME280;7275;50.328;8.720;2023-04-20T11:47:37;99528.09;;;23.51;29.56
14383;BME280;7275;50.328;8.720;2023-04-20T11:50:07;99526.00;;;24.10;29.36
14383;BME280;7275;50.328;8.720;2023-04-20T11:52:35;99516.19;;;24.73;28.74
14383;BME280;7275;50.328;8.720;2023-04-20T11:55:05;99520.91;;;24.98;28.33
14383;BME280;7275;50.328;8.720;2023-04-20T11:57:33;99515.91;;;25.21;27.89
14383;BME280;7275;50.328;8.720;2023-04-20T12:00:01;99523.16;;;25.03;28.06
14383;BME280;7275;50.328;8.720;2023-04-20T12:02:29;99522.88;;;24.79;27.70
14383;BME280;7275;50.328;8.720;2023-04-20T12:04:57;99520.41;;;24.58;27.90
14383;BME280;7275;50.328;8.720;2023-04-20T12:07:27;99514.63;;;24.53;27.58
14383;BME280;7275;50.328;8.720;2023-04-20T12:09:54;99515.84;;;24.58;27.38
14383;BME280;7275;50.328;8.720;2023-04-20T12:12:23;99519.59;;;24.48;27.49
14383;BME280;7275;50.328;8.720;2023-04-20T12:14:51;99507.03;;;24.29;27.34
14383;BME280;7275;50.328;8.720;2023-04-20T12:17:19;99517.63;;;24.13;27.46
14383;BME280;7275;50.328;8.720;2023-04-20T12:19:46;99507.09;;;24.10;27.64
14383;BME280;7275;50.328;8.720;2023-04-20T12:22:14;99500.75;;;24.29;27.53
14383;BME280;7275;50.328;8.720;2023-04-20T12:24:41;99495.72;;;24.71;27.33
14383;BME280;7275;50.328;8.720;2023-04-20T12:27:09;99496.25;;;25.01;27.23
14383;BME280;7275;50.328;8.720;2023-04-20T12:29:38;99485.38;;;25.11;26.99
14383;BME280;7275;50.328;8.720;2023-04-20T12:32:06;99486.44;;;25.00;27.07
14383;BME280;7275;50.328;8.720;2023-04-20T12:34:33;99485.03;;;24.79;26.98
14383;BME280;7275;50.328;8.720;2023-04-20T12:37:01;99480.28;;;24.53;26.95
14383;BME280;7275;50.328;8.720;2023-04-20T12:39:29;99488.28;;;24.28;26.72
14383;BME280;7275;50.328;8.720;2023-04-20T12:41:56;99480.09;;;24.10;26.79
14383;BME280;7275;50.328;8.720;2023-04-20T12:44:24;99478.28;;;24.28;27.10
14383;BME280;7275;50.328;8.720;2023-04-20T12:46:53;99478.00;;;25.03;26.64
14383;BME280;7275;50.328;8.720;2023-04-20T12:49:20;99473.81;;;25.62;26.10
14383;BME280;7275;50.328;8.720;2023-04-20T12:51:48;99473.47;;;25.57;25.67
14383;BME280;7275;50.328;8.720;2023-04-20T12:54:15;99513.66;;;25.16;25.73
14383;BME280;7275;50.328;8.720;2023-04-20T12:56:43;99490.28;;;24.53;26.19
14383;BME280;7275;50.328;8.720;2023-04-20T12:59:11;99493.91;;;23.88;26.32
14383;BME280;7275;50.328;8.720;2023-04-20T13:01:39;99492.59;;;23.36;26.99
14383;BME280;7275;50.328;8.720;2023-04-20T13:04:08;99489.41;;;23.12;27.68
14383;BME280;7275;50.328;8.720;2023-04-20T13:06:36;99487.00;;;23.09;27.73
14383;BME280;7275;50.328;8.720;2023-04-20T13:09:03;99482.31;;;23.21;28.08
14383;BME280;7275;50.328;8.720;2023-04-20T13:11:32;99482.88;;;23.24;27.87
14383;BME280;7275;50.328;8.720;2023-04-20T13:13:59;99481.16;;;23.14;27.69
14383;BME280;7275;50.328;8.720;2023-04-20T13:16:27;99482.72;;;22.87;27.98
14383;BME280;7275;50.328;8.720;2023-04-20T13:18:55;99499.47;;;22.51;28.11
14383;BME280;7275;50.328;8.720;2023-04-20T13:21:23;99501.88;;;22.05;28.04
14383;BME280;7275;50.328;8.720;2023-04-20T13:23:51;99502.25;;;21.59;28.29